Hillsdale, New York
Current Conditions -  °F | °C
As of 9:54 AM on Monday 24 Nov 2014 (Local Time) from KPSF Reporting Station
Light Rain Light Rain  
Wind Chill: 60°   Ceiling: 2900
Heat Index: 60°   Visibility: 7mi
Dew Point: 57°   Wind: 16mph
Humidity: 90%   Direction: 180°S
Pressure: 29.63"   Gusts: 35mph
Location:  42.18°N, 73.52°W
Report Text: KPSF 241454Z AUTO 18014G30KT 7SM -RA FEW013 SCT020 OVC029 16/14 A2963 RMK AO2 PK WND 19030/1450 RAB1357E36B40 SLP026 P0002 60008 T01560139 56000
Loading
Personal Weather Stations






























Interactive Weather Map New forecast layout! Learn more

10-Day Weather Forecast

Advertisements
Track Severe Weather on mobile